Time;durP1;ratioP1;P1;durP2;ratioP2;P2;SDS_P1;SDS_P2;PMS_P1;PMS_P2;Temp;Humidity;BMP_temperature;BMP_pressure;BME280_temperature;BME280_humidity;BME280_pressure;Samples;Min_cycle;Max_cycle;Signal;HPM_P1;HPM_P2
2022/12/28 00:02:16;;;;;;;16.38;3.72;;;9.90;99.90;;;;;;5010830;28;20018;-46
2022/12/28 00:04:42;;;;;;;14.65;3.17;;;9.80;99.90;;;;;;5010481;28;20026;-52
2022/12/28 00:07:08;;;;;;;17.05;2.40;;;9.90;99.90;;;;;;5009594;28;20022;-55
2022/12/28 00:09:33;;;;;;;12.80;2.35;;;9.90;99.90;;;;;;5010605;28;20041;-47
2022/12/28 00:11:59;;;;;;;14.02;1.83;;;9.90;99.90;;;;;;5010606;28;20030;-47
2022/12/28 00:14:24;;;;;;;12.18;2.60;;;9.90;99.90;;;;;;5010520;28;20380;-48
2022/12/28 00:16:50;;;;;;;14.73;2.55;;;9.90;99.90;;;;;;5010698;28;20388;-52
2022/12/28 00:19:16;;;;;;;17.23;2.25;;;9.90;99.90;;;;;;5010648;28;20109;-54
2022/12/28 00:21:43;;;;;;;16.45;2.45;;;9.90;99.90;;;;;;5010616;28;20048;-47
2022/12/28 00:24:17;;;;;;;13.07;2.50;;;9.90;99.90;;;;;;5010209;28;20093;-49
2022/12/28 00:26:42;;;;;;;12.85;2.13;;;10.00;99.90;;;;;;5010811;28;20069;-46
2022/12/28 00:29:08;;;;;;;14.50;2.35;;;10.00;99.90;;;;;;4979268;28;20105;-51
2022/12/28 00:31:33;;;;;;;9.57;1.73;;;10.00;99.90;;;;;;5010530;28;20042;-47
2022/12/28 00:33:59;;;;;;;16.63;2.45;;;10.00;99.90;;;;;;5010562;28;20044;-47
2022/12/28 00:36:25;;;;;;;9.98;2.10;;;10.00;99.90;;;;;;5010360;28;20018;-48
2022/12/28 00:38:51;;;;;;;14.52;2.55;;;10.00;99.90;;;;;;5010245;28;20029;-48
2022/12/28 00:41:16;;;;;;;14.20;2.03;;;10.00;99.90;;;;;;5010102;28;20022;-47
2022/12/28 00:43:43;;;;;;;11.35;2.70;;;10.10;99.90;;;;;;5010440;28;20100;-48
2022/12/28 00:46:09;;;;;;;9.65;2.10;;;10.10;99.90;;;;;;5010383;28;20358;-52
2022/12/28 00:48:34;;;;;;;21.90;2.75;;;10.00;99.90;;;;;;5010562;28;20084;-47
2022/12/28 00:51:02;;;;;;;9.90;1.75;;;10.10;99.90;;;;;;5010121;28;20030;-51
2022/12/28 00:53:28;;;;;;;15.65;2.75;;;10.10;99.90;;;;;;5010038;28;20083;-47
2022/12/28 00:55:54;;;;;;;11.93;1.77;;;10.10;99.90;;;;;;5010294;28;20423;-49
2022/12/28 00:58:19;;;;;;;8.93;1.40;;;10.10;99.90;;;;;;5010237;28;20587;-50
2022/12/28 01:00:45;;;;;;;8.70;1.83;;;10.10;99.90;;;;;;5010244;28;20030;-47
2022/12/28 01:03:10;;;;;;;7.40;1.48;;;10.10;99.90;;;;;;4992659;28;20413;-47
2022/12/28 01:05:38;;;;;;;11.95;1.75;;;10.10;99.90;;;;;;5010268;28;20104;-51
2022/12/28 01:08:04;;;;;;;9.98;1.83;;;10.20;99.90;;;;;;5010352;28;20240;-47
2022/12/28 01:10:30;;;;;;;9.10;1.60;;;10.20;99.90;;;;;;5010222;28;20133;-54
2022/12/28 01:12:55;;;;;;;9.52;1.42;;;10.20;99.90;;;;;;5010128;28;20034;-53
2022/12/28 01:15:21;;;;;;;11.07;1.55;;;10.20;99.90;;;;;;5010385;28;20044;-47
2022/12/28 01:17:46;;;;;;;9.52;2.22;;;10.20;99.90;;;;;;5012120;28;20080;-47
2022/12/28 01:20:12;;;;;;;12.38;1.80;;;10.30;99.90;;;;;;5013708;28;20376;-48
2022/12/28 01:22:38;;;;;;;11.05;1.40;;;10.20;99.90;;;;;;5013678;28;20018;-49
2022/12/28 01:25:03;;;;;;;11.77;1.83;;;10.20;99.90;;;;;;5013404;28;20049;-48
2022/12/28 01:27:29;;;;;;;9.07;1.33;;;10.30;99.90;;;;;;5013519;28;20026;-46
2022/12/28 01:29:55;;;;;;;4.88;1.38;;;10.30;99.90;;;;;;5013550;28;20030;-46
2022/12/28 01:32:20;;;;;;;9.25;1.35;;;10.30;99.90;;;;;;5013392;28;20070;-47
2022/12/28 01:34:46;;;;;;;10.93;1.50;;;10.30;99.90;;;;;;5013281;28;20112;-47
2022/12/28 01:37:11;;;;;;;7.13;1.58;;;10.30;99.90;;;;;;5013011;28;20105;-51
2022/12/28 01:39:37;;;;;;;9.93;1.27;;;10.30;99.90;;;;;;5013088;28;20453;-47
2022/12/28 01:42:03;;;;;;;11.82;1.63;;;10.30;99.90;;;;;;5013342;28;20033;-50
2022/12/28 01:44:41;;;;;;;7.68;1.17;;;10.30;99.90;;;;;;5013066;28;20112;-49
2022/12/28 01:47:12;;;;;;;10.88;1.50;;;10.30;99.90;;;;;;5013396;28;20034;-47
2022/12/28 01:49:43;;;;;;;10.75;1.52;;;10.40;99.90;;;;;;5013168;28;20029;-47
2022/12/28 01:52:16;;;;;;;8.10;1.27;;;10.40;99.90;;;;;;5013314;28;20037;-59
2022/12/28 01:54:50;;;;;;;9.88;1.30;;;10.40;99.90;;;;;;5013080;28;20114;-50
2022/12/28 01:57:17;;;;;;;9.82;1.50;;;10.40;99.90;;;;;;5013273;28;20030;-50
2022/12/28 01:59:50;;;;;;;8.48;1.15;;;10.40;99.90;;;;;;4995171;28;20030;-51
2022/12/28 02:02:16;;;;;;;10.73;1.13;;;10.40;99.90;;;;;;5013208;28;20112;-52
2022/12/28 02:04:43;;;;;;;7.05;1.20;;;10.40;99.90;;;;;;5012862;28;20033;-51
2022/12/28 02:07:09;;;;;;;9.95;1.17;;;10.40;99.90;;;;;;5012653;28;20057;-49
2022/12/28 02:09:39;;;;;;;8.50;2.05;;;10.40;99.90;;;;;;5012932;28;20026;-47
2022/12/28 02:12:12;;;;;;;8.82;1.23;;;10.40;99.90;;;;;;5012436;28;20081;-48
2022/12/28 02:14:39;;;;;;;11.73;1.80;;;10.50;99.90;;;;;;5003263;28;20469;-47
2022/12/28 02:17:08;;;;;;;10.80;1.70;;;10.40;99.90;;;;;;5012380;28;20025;-53
2022/12/28 02:19:44;;;;;;;14.60;1.50;;;10.50;99.90;;;;;;5012287;28;20018;-55
2022/12/28 02:22:29;;;;;;;9.50;1.58;;;10.40;99.90;;;;;;5012063;28;20526;-47
2022/12/28 02:25:11;;;;;;;9.02;1.48;;;10.50;99.90;;;;;;5012123;28;20574;-47
2022/12/28 02:28:06;;;;;;;9.23;1.52;;;10.50;99.90;;;;;;5012424;28;20041;-50
2022/12/28 02:30:37;;;;;;;4.13;1.13;;;10.40;99.90;;;;;;5011760;28;20366;-50
2022/12/28 02:33:23;;;;;;;8.88;1.45;;;10.40;99.90;;;;;;5012084;28;20030;-46
2022/12/28 02:35:55;;;;;;;9.88;1.88;;;10.50;99.90;;;;;;5012174;28;20080;-52
2022/12/28 02:38:39;;;;;;;6.80;1.35;;;10.50;99.90;;;;;;4985708;28;20025;-50
2022/12/28 02:41:12;;;;;;;8.52;1.38;;;10.40;99.90;;;;;;5012122;28;20069;-49
2022/12/28 02:43:38;;;;;;;7.90;1.15;;;10.40;99.90;;;;;;5012098;28;20041;-47
2022/12/28 02:53:09;;;;;;;6.93;1.50;;;10.40;99.90;;;;;;5012001;28;20036;-50
2022/12/28 02:58:48;;;;;;;7.75;1.58;;;10.40;99.90;;;;;;5011600;28;20432;-49
2022/12/28 03:01:38;;;;;;;8.48;1.45;;;10.40;99.90;;;;;;5011799;28;20481;-47
2022/12/28 03:04:20;;;;;;;8.00;1.10;;;10.40;99.90;;;;;;4986323;28;20018;-54
2022/12/28 03:10:17;;;;;;;5.70;1.00;;;10.40;99.90;;;;;;5011788;28;20029;-47
2022/12/28 03:12:49;;;;;;;7.65;1.98;;;10.40;99.90;;;;;;4988049;28;20049;-50
2022/12/28 03:15:28;;;;;;;7.72;1.10;;;10.40;99.90;;;;;;5011832;28;20112;-49
2022/12/28 03:32:04;;;;;;;8.95;1.77;;;10.40;99.90;;;;;;5011064;28;20037;-48
2022/12/28 03:34:30;;;;;;;10.65;1.40;;;10.40;99.90;;;;;;5011101;28;20049;-47
2022/12/28 03:37:30;;;;;;;8.38;1.45;;;10.50;99.90;;;;;;5011232;28;20127;-47
2022/12/28 03:40:30;;;;;;;9.20;1.75;;;10.50;99.90;;;;;;5010794;28;20378;-47
2022/12/28 03:45:55;;;;;;;9.43;1.08;;;10.50;99.90;;;;;;5011328;28;20002;-51
2022/12/28 03:48:22;;;;;;;11.10;1.50;;;10.50;99.90;;;;;;5010847;28;20018;-47
2022/12/28 03:50:49;;;;;;;10.20;1.67;;;10.50;99.90;;;;;;5011228;28;20033;-47
2022/12/28 03:53:23;;;;;;;6.07;1.23;;;10.50;99.90;;;;;;5010773;28;20033;-47
2022/12/28 03:55:48;;;;;;;13.35;1.67;;;10.50;99.90;;;;;;5011087;28;20018;-46
2022/12/28 03:58:14;;;;;;;9.23;1.75;;;10.50;99.90;;;;;;5010796;28;20044;-48
2022/12/28 04:00:39;;;;;;;9.00;1.52;;;10.50;99.90;;;;;;5010899;28;20014;-48
2022/12/28 04:03:05;;;;;;;9.10;1.38;;;10.50;99.90;;;;;;5010584;28;20416;-48
2022/12/28 04:05:31;;;;;;;10.75;1.80;;;10.50;99.90;;;;;;5010802;28;20105;-48
2022/12/28 04:07:56;;;;;;;17.45;2.00;;;10.50;99.90;;;;;;5010551;28;20026;-47
2022/12/28 04:10:22;;;;;;;5.75;1.20;;;10.50;99.90;;;;;;5010886;28;20037;-50
2022/12/28 04:12:48;;;;;;;9.82;1.73;;;10.50;99.90;;;;;;5002547;28;20042;-49
2022/12/28 04:15:13;;;;;;;10.10;1.48;;;10.50;99.90;;;;;;5010792;28;20096;-48
2022/12/28 04:17:39;;;;;;;12.93;1.40;;;10.50;99.90;;;;;;5010706;28;20022;-49
2022/12/28 04:20:05;;;;;;;11.25;2.15;;;10.50;99.90;;;;;;5010490;28;20373;-48
2022/12/28 04:22:30;;;;;;;12.18;2.00;;;10.50;99.90;;;;;;4993080;28;20113;-49
2022/12/28 04:24:56;;;;;;;11.25;1.75;;;10.50;99.90;;;;;;5010370;28;20137;-50
2022/12/28 04:27:22;;;;;;;8.23;1.60;;;10.50;99.90;;;;;;5010480;28;20535;-48
2022/12/28 04:29:48;;;;;;;13.10;1.85;;;10.50;99.90;;;;;;5010245;28;20037;-50
2022/12/28 04:32:14;;;;;;;8.95;1.60;;;10.50;99.90;;;;;;5010264;28;20407;-51
2022/12/28 04:34:40;;;;;;;7.53;1.35;;;10.50;99.90;;;;;;5010592;28;20018;-47
2022/12/28 04:37:05;;;;;;;16.08;1.98;;;10.50;99.90;;;;;;5010235;28;20480;-47
2022/12/28 04:39:31;;;;;;;17.77;2.13;;;10.50;99.90;;;;;;5009914;28;20022;-51
2022/12/28 04:41:57;;;;;;;16.25;2.33;;;10.50;99.90;;;;;;5010597;28;20120;-48
2022/12/28 04:44:22;;;;;;;17.45;2.22;;;10.50;99.90;;;;;;5010247;28;20433;-49
2022/12/28 04:46:48;;;;;;;13.73;2.47;;;10.50;99.90;;;;;;5010523;28;20030;-47
2022/12/28 04:49:14;;;;;;;12.52;1.98;;;10.50;99.90;;;;;;5010462;28;20034;-46
2022/12/28 04:51:39;;;;;;;10.50;1.58;;;10.50;99.90;;;;;;5010996;28;20034;-49
2022/12/28 04:54:05;;;;;;;14.40;1.52;;;10.50;99.90;;;;;;5014066;28;20477;-51
2022/12/28 04:56:31;;;;;;;8.27;1.35;;;10.50;99.90;;;;;;5014077;28;20033;-52
2022/12/28 04:58:59;;;;;;;12.82;1.88;;;10.50;99.90;;;;;;4996662;28;20057;-47
2022/12/28 05:01:25;;;;;;;12.73;1.65;;;10.40;99.90;;;;;;5014340;28;20030;-50
2022/12/28 05:03:52;;;;;;;16.23;1.58;;;10.40;99.90;;;;;;5014234;28;20037;-54
2022/12/28 05:06:20;;;;;;;8.95;1.92;;;10.40;99.90;;;;;;5014033;28;20026;-56
2022/12/28 05:08:46;;;;;;;7.65;1.40;;;10.40;99.90;;;;;;5013829;28;20030;-50
2022/12/28 05:11:18;;;;;;;11.77;1.75;;;10.40;99.90;;;;;;5013871;28;20026;-50
2022/12/28 05:13:44;;;;;;;10.02;1.77;;;10.40;99.90;;;;;;5013911;28;20037;-51
2022/12/28 05:16:12;;;;;;;10.63;2.22;;;10.40;99.90;;;;;;5014140;28;20029;-50
2022/12/28 05:18:38;;;;;;;12.93;1.50;;;10.40;99.90;;;;;;5013877;28;20097;-49
2022/12/28 05:21:05;;;;;;;16.63;1.23;;;10.40;99.90;;;;;;5013612;28;20083;-49
2022/12/28 05:23:32;;;;;;;12.35;1.50;;;10.40;99.90;;;;;;5013179;28;20044;-49
2022/12/28 05:25:58;;;;;;;10.45;1.42;;;10.40;99.90;;;;;;5013464;28;20033;-48
2022/12/28 05:28:24;;;;;;;15.55;1.88;;;10.40;99.90;;;;;;5013459;28;20033;-49
2022/12/28 05:30:51;;;;;;;14.40;1.77;;;10.40;99.90;;;;;;5013543;28;20148;-51
2022/12/28 05:33:17;;;;;;;15.50;2.38;;;10.40;99.90;;;;;;5013383;28;20117;-47
2022/12/28 05:35:43;;;;;;;21.58;2.13;;;10.40;99.90;;;;;;5013171;28;20105;-54
2022/12/28 05:38:08;;;;;;;15.77;2.15;;;10.40;99.90;;;;;;5013555;28;21263;-52
2022/12/28 05:40:34;;;;;;;24.42;3.08;;;10.40;99.90;;;;;;5013061;28;20488;-52
2022/12/28 05:42:59;;;;;;;16.38;2.50;;;10.40;99.90;;;;;;5013290;28;20464;-52
2022/12/28 05:45:25;;;;;;;22.23;2.47;;;10.40;99.90;;;;;;5013083;28;20100;-47
2022/12/28 05:47:53;;;;;;;20.38;2.35;;;10.40;99.90;;;;;;5013359;28;20096;-51
2022/12/28 05:50:19;;;;;;;16.77;2.15;;;10.40;99.90;;;;;;5013268;28;20037;-49
2022/12/28 05:52:45;;;;;;;22.58;2.17;;;10.40;99.90;;;;;;5012833;28;20037;-51
2022/12/28 05:55:10;;;;;;;27.95;2.88;;;10.40;99.90;;;;;;5013129;28;20103;-48
2022/12/28 05:57:36;;;;;;;25.92;3.15;;;10.40;99.90;;;;;;5012525;28;20044;-50
2022/12/28 06:00:03;;;;;;;18.02;2.20;;;10.40;99.90;;;;;;5013005;28;20084;-48
2022/12/28 06:02:29;;;;;;;19.65;2.67;;;10.40;99.90;;;;;;5012764;28;20109;-48
2022/12/28 06:04:54;;;;;;;15.48;2.38;;;10.40;99.90;;;;;;5011983;28;20094;-48
2022/12/28 06:07:21;;;;;;;17.85;2.45;;;10.40;99.90;;;;;;5012786;28;20057;-51
2022/12/28 06:09:46;;;;;;;20.08;2.72;;;10.40;99.90;;;;;;5012411;28;20010;-48
2022/12/28 06:12:12;;;;;;;25.48;3.15;;;10.40;99.90;;;;;;4997495;28;20042;-48
2022/12/28 06:14:38;;;;;;;16.25;2.60;;;10.40;99.90;;;;;;4991825;28;20027;-47
2022/12/28 06:17:03;;;;;;;23.92;2.53;;;10.40;99.90;;;;;;4975016;28;20035;-47
2022/12/28 06:19:29;;;;;;;23.67;2.42;;;10.40;99.90;;;;;;4992545;28;20018;-52
2022/12/28 06:21:55;;;;;;;17.88;2.85;;;10.40;99.90;;;;;;4997671;28;20038;-48
2022/12/28 06:24:20;;;;;;;26.30;3.50;;;10.40;99.90;;;;;;4996235;28;20058;-48
2022/12/28 06:26:46;;;;;;;18.92;2.20;;;10.40;99.90;;;;;;4992836;28;20026;-49
2022/12/28 06:29:12;;;;;;;19.42;2.55;;;10.40;99.90;;;;;;4992858;28;20037;-50
2022/12/28 06:31:42;;;;;;;20.13;2.90;;;10.40;99.90;;;;;;4992656;28;20397;-47
2022/12/28 06:34:08;;;;;;;;;;;10.40;99.90;;;;;;4992965;28;20023;-47
2022/12/28 06:36:44;;;;;;;21.38;3.13;;;10.30;99.90;;;;;;4992623;28;19928;-49
2022/12/28 06:39:12;;;;;;;14.70;2.58;;;10.40;99.90;;;;;;4992520;28;20030;-47
2022/12/28 06:41:38;;;;;;;22.02;3.20;;;10.30;99.90;;;;;;4992396;28;20026;-48
2022/12/28 06:44:08;;;;;;;17.15;2.42;;;10.30;99.90;;;;;;4992581;28;20105;-52
2022/12/28 06:46:34;;;;;;;15.50;2.60;;;10.30;99.90;;;;;;4992165;28;20114;-50
2022/12/28 06:49:00;;;;;;;26.05;2.90;;;10.20;99.90;;;;;;4992149;28;20101;-48
2022/12/28 06:51:29;;;;;;;19.58;2.33;;;10.20;99.90;;;;;;4991955;28;20081;-47
2022/12/28 06:53:55;;;;;;;22.02;2.90;;;10.20;99.90;;;;;;4992376;28;20030;-48
2022/12/28 06:56:24;;;;;;;24.27;3.00;;;10.20;99.90;;;;;;4992447;28;20046;-49
2022/12/28 06:58:50;;;;;;;21.48;3.03;;;10.20;99.90;;;;;;4992082;28;20026;-54
2022/12/28 07:01:24;;;;;;;25.63;2.47;;;10.10;99.90;;;;;;4992049;28;20018;-48
2022/12/28 07:03:52;;;;;;;33.50;4.55;;;10.10;99.90;;;;;;4992039;28;20023;-47
2022/12/28 07:06:19;;;;;;;19.27;2.55;;;10.10;99.90;;;;;;4992317;28;20022;-48
2022/12/28 07:08:46;;;;;;;22.88;3.05;;;10.10;99.90;;;;;;4992091;28;20053;-47
2022/12/28 07:11:15;;;;;;;25.27;3.40;;;10.10;99.90;;;;;;4991990;28;20034;-48
2022/12/28 07:13:41;;;;;;;23.25;3.47;;;10.10;99.90;;;;;;4991969;28;20029;-47
2022/12/28 07:16:11;;;;;;;23.27;2.83;;;10.10;99.90;;;;;;4991669;28;20035;-48
2022/12/28 07:18:37;;;;;;;26.38;2.60;;;10.10;99.90;;;;;;4991864;28;20133;-47
2022/12/28 07:21:06;;;;;;;17.05;2.00;;;10.10;99.90;;;;;;5002526;28;20038;-47
2022/12/28 07:23:32;;;;;;;18.35;2.53;;;10.10;99.90;;;;;;5011355;28;20500;-52
2022/12/28 07:26:23;;;;;;;15.05;2.60;;;10.10;99.90;;;;;;5011619;28;20057;-51
2022/12/28 07:28:51;;;;;;;19.67;2.33;;;10.10;99.90;;;;;;5011126;28;20026;-52
2022/12/28 07:31:22;;;;;;;19.38;2.90;;;10.10;99.90;;;;;;5011325;28;20049;-50
2022/12/28 07:33:49;;;;;;;18.20;2.03;;;10.10;99.90;;;;;;5011209;28;20042;-49
2022/12/28 07:36:18;;;;;;;16.67;2.38;;;10.00;99.90;;;;;;5011443;28;20209;-47
2022/12/28 07:38:44;;;;;;;16.70;3.28;;;10.00;99.90;;;;;;5011034;28;20058;-47
2022/12/28 07:41:18;;;;;;;15.82;2.65;;;10.00;99.90;;;;;;5011208;28;20026;-47
2022/12/28 07:43:44;;;;;;;23.40;3.15;;;10.00;99.90;;;;;;5010887;28;20032;-47
2022/12/28 07:46:15;;;;;;;21.83;2.50;;;10.00;99.90;;;;;;5011175;28;20044;-51
2022/12/28 07:48:42;;;;;;;16.15;2.15;;;10.00;99.90;;;;;;5011118;28;20092;-47
2022/12/28 07:51:15;;;;;;;17.65;2.35;;;10.00;99.90;;;;;;5010940;28;20030;-47
2022/12/28 07:53:42;;;;;;;22.45;2.72;;;10.00;99.90;;;;;;5011061;28;20104;-47
2022/12/28 07:56:09;;;;;;;17.98;2.40;;;10.00;99.90;;;;;;5010842;28;20026;-49
2022/12/28 07:58:35;;;;;;;15.23;3.03;;;9.90;99.90;;;;;;5010072;28;20025;-51
2022/12/28 08:01:09;;;;;;;22.10;2.85;;;9.90;99.90;;;;;;5001503;28;20636;-48
2022/12/28 08:03:36;;;;;;;16.13;2.47;;;9.90;99.90;;;;;;4998592;28;20101;-53
2022/12/28 08:06:06;;;;;;;18.77;2.65;;;9.90;99.90;;;;;;4990913;28;20098;-49
2022/12/28 08:08:43;;;;;;;20.95;2.80;;;9.90;99.90;;;;;;4990835;28;20030;-49
2022/12/28 08:11:15;;;;;;;20.88;2.90;;;10.00;99.90;;;;;;4991249;28;20030;-47
2022/12/28 08:13:43;;;;;;;19.23;2.97;;;10.00;99.90;;;;;;4991452;28;20026;-47
2022/12/28 08:16:11;;;;;;;22.17;2.88;;;10.00;99.90;;;;;;4991097;28;20023;-47
2022/12/28 08:18:39;;;;;;;20.35;2.90;;;9.90;99.90;;;;;;4991491;28;20045;-52
2022/12/28 08:21:07;;;;;;;20.13;2.90;;;9.90;99.90;;;;;;4984300;28;20469;-50
2022/12/28 08:23:33;;;;;;;14.17;2.13;;;9.90;99.90;;;;;;5010255;28;20034;-48
2022/12/28 08:26:07;;;;;;;25.92;4.13;;;9.90;99.90;;;;;;4993340;28;20038;-48
2022/12/28 08:28:34;;;;;;;18.05;2.42;;;9.90;99.90;;;;;;5013929;28;20025;-47
2022/12/28 08:31:08;;;;;;;13.20;2.70;;;9.90;99.90;;;;;;5014497;28;20032;-47
2022/12/28 08:33:33;;;;;;;23.08;4.18;;;10.00;99.90;;;;;;5014313;28;20029;-47
2022/12/28 08:35:59;;;;;;;13.70;2.55;;;10.00;99.90;;;;;;5014633;28;20052;-49
2022/12/28 08:38:25;;;;;;;25.02;3.88;;;10.00;99.90;;;;;;5014391;28;20061;-48
2022/12/28 08:40:58;;;;;;;22.88;2.85;;;10.10;99.90;;;;;;5014463;28;20037;-47
2022/12/28 08:43:25;;;;;;;23.98;3.58;;;10.10;99.90;;;;;;5014270;28;20026;-47
2022/12/28 08:46:11;;;;;;;38.15;3.25;;;10.10;99.90;;;;;;5014162;28;20017;-50
2022/12/28 08:48:37;;;;;;;16.75;2.58;;;10.10;99.90;;;;;;5014413;28;20018;-52
2022/12/28 08:51:06;;;;;;;26.05;3.75;;;10.10;99.90;;;;;;5014323;28;20034;-48
2022/12/28 08:53:33;;;;;;;29.77;4.15;;;10.00;99.90;;;;;;5014404;28;20465;-51
2022/12/28 08:56:11;;;;;;;29.75;3.58;;;10.00;99.90;;;;;;5014150;28;20485;-47
2022/12/28 08:58:37;;;;;;;22.80;3.03;;;10.10;99.90;;;;;;5014131;28;20057;-51
2022/12/28 09:01:05;;;;;;;22.70;3.72;;;10.10;99.90;;;;;;5014006;28;20022;-51
2022/12/28 09:03:31;;;;;;;33.00;3.78;;;10.10;99.90;;;;;;5014185;28;20073;-47
2022/12/28 09:05:57;;;;;;;21.75;4.15;;;10.10;99.90;;;;;;5014082;28;20038;-50
2022/12/28 09:08:22;;;;;;;27.67;3.45;;;10.10;99.90;;;;;;4996733;28;20030;-48
2022/12/28 09:10:48;;;;;;;29.38;3.72;;;10.10;99.90;;;;;;5001549;28;20042;-49
2022/12/28 09:13:13;;;;;;;25.98;4.05;;;10.10;99.90;;;;;;5004890;28;20022;-47
2022/12/28 09:15:39;;;;;;;24.02;3.25;;;10.10;99.90;;;;;;4985822;28;20027;-51
2022/12/28 09:18:06;;;;;;;18.80;2.80;;;10.10;99.90;;;;;;4992096;28;20049;-48
2022/12/28 09:20:33;;;;;;;25.85;3.55;;;10.10;99.90;;;;;;4976266;28;20054;-48
2022/12/28 09:22:59;;;;;;;24.20;3.28;;;10.20;99.90;;;;;;4976810;28;20093;-52
2022/12/28 09:25:24;;;;;;;19.75;3.08;;;10.20;99.90;;;;;;4992158;28;20481;-48
2022/12/28 09:27:50;;;;;;;25.05;3.60;;;10.20;99.90;;;;;;4993436;28;20038;-48
2022/12/28 09:30:15;;;;;;;17.17;3.38;;;10.20;99.90;;;;;;4993732;28;20023;-48
2022/12/28 09:32:41;;;;;;;27.55;3.42;;;10.20;99.90;;;;;;4993499;28;20548;-48
2022/12/28 09:35:07;;;;;;;24.92;2.75;;;10.20;99.90;;;;;;4993569;28;21022;-49
2022/12/28 09:37:32;;;;;;;23.45;2.92;;;10.20;99.90;;;;;;4993684;28;20069;-49
2022/12/28 09:39:58;;;;;;;21.98;3.58;;;10.20;99.90;;;;;;4993915;28;20057;-48
2022/12/28 09:42:27;;;;;;;24.00;3.33;;;10.20;99.90;;;;;;4989760;28;20485;-54
2022/12/28 09:45:01;;;;;;;20.10;2.47;;;10.20;99.90;;;;;;4993816;28;20022;-53
2022/12/28 09:47:36;;;;;;;28.35;3.30;;;10.20;99.90;;;;;;4991862;28;20054;-48
2022/12/28 09:50:20;;;;;;;17.23;2.42;;;10.20;99.90;;;;;;4993696;28;20023;-47
2022/12/28 09:53:21;;;;;;;27.27;2.90;;;10.10;99.90;;;;;;4993471;28;20034;-47
2022/12/28 09:56:32;;;;;;;28.58;3.38;;;10.10;99.90;;;;;;4945984;28;20043;-49
2022/12/28 09:58:59;;;;;;;27.83;3.85;;;10.10;99.90;;;;;;4985370;28;20071;-51
2022/12/28 10:01:26;;;;;;;21.13;4.55;;;10.20;99.90;;;;;;4993646;28;20022;-50
2022/12/28 10:03:52;;;;;;;22.23;3.15;;;10.10;99.90;;;;;;4993524;28;20556;-53
2022/12/28 10:06:26;;;;;;;22.70;2.78;;;10.20;99.90;;;;;;4993429;28;20093;-53
2022/12/28 10:08:56;;;;;;;28.27;3.25;;;10.20;99.90;;;;;;4993419;28;20019;-47
2022/12/28 10:11:24;;;;;;;19.73;2.80;;;10.20;99.90;;;;;;4992220;28;20037;-50
2022/12/28 10:13:55;;;;;;;18.30;3.17;;;10.20;99.90;;;;;;4991309;28;20559;-48
2022/12/28 10:16:22;;;;;;;17.38;2.58;;;10.20;99.90;;;;;;4979189;28;20034;-49
2022/12/28 10:18:48;;;;;;;21.73;2.72;;;10.20;99.90;;;;;;4992543;28;20030;-52
2022/12/28 10:21:17;;;;;;;23.33;3.00;;;10.20;99.90;;;;;;4983280;28;20463;-50
2022/12/28 10:23:45;;;;;;;19.30;2.42;;;10.20;99.90;;;;;;4986906;28;20033;-48
2022/12/28 10:26:15;;;;;;;17.92;3.03;;;10.20;99.90;;;;;;4992702;28;20105;-48
2022/12/28 10:28:47;;;;;;;20.25;3.20;;;10.20;99.90;;;;;;4992485;28;20114;-48
2022/12/28 10:31:13;;;;;;;19.98;2.85;;;10.20;99.90;;;;;;4992451;28;20034;-49
2022/12/28 10:33:41;;;;;;;20.88;2.88;;;10.20;99.90;;;;;;4989352;28;20037;-48
2022/12/28 10:36:17;;;;;;;18.95;2.65;;;10.20;99.90;;;;;;4991550;28;20026;-47
2022/12/28 10:38:49;;;;;;;19.80;3.15;;;10.20;99.90;;;;;;4992122;28;20029;-47
2022/12/28 10:41:17;;;;;;;21.83;2.53;;;10.10;99.90;;;;;;4992427;28;20101;-47
2022/12/28 10:43:50;;;;;;;17.33;2.78;;;10.10;99.90;;;;;;4991560;28;20477;-49
2022/12/28 10:46:19;;;;;;;18.08;2.97;;;10.10;99.90;;;;;;4992145;28;20026;-47
2022/12/28 10:48:49;;;;;;;19.95;2.85;;;10.10;99.90;;;;;;4990987;28;20034;-47
2022/12/28 10:51:16;;;;;;;18.95;2.72;;;10.10;99.90;;;;;;4991121;28;20645;-48
2022/12/28 10:53:45;;;;;;;12.77;2.92;;;10.10;99.90;;;;;;4991732;28;20026;-46
2022/12/28 10:56:11;;;;;;;14.23;2.58;;;10.10;99.90;;;;;;4989324;28;20469;-50
2022/12/28 10:58:37;;;;;;;23.95;4.22;;;10.10;99.90;;;;;;4991430;28;20046;-51
2022/12/28 11:01:11;;;;;;;23.17;3.03;;;10.00;99.90;;;;;;4988041;28;20027;-49
2022/12/28 11:03:39;;;;;;;21.52;2.90;;;10.00;99.90;;;;;;4984338;28;20042;-48
2022/12/28 11:06:13;;;;;;;19.98;3.15;;;10.00;99.90;;;;;;4991653;28;20029;-51
2022/12/28 11:08:40;;;;;;;24.83;3.25;;;10.00;99.90;;;;;;4987145;28;20049;-47
2022/12/28 11:11:14;;;;;;;16.42;2.50;;;9.90;99.90;;;;;;4994573;28;20037;-49
2022/12/28 11:13:41;;;;;;;22.27;2.72;;;9.90;99.90;;;;;;4991328;28;20030;-49
2022/12/28 11:16:12;;;;;;;15.75;2.85;;;9.90;99.90;;;;;;4991889;28;20040;-46
2022/12/28 11:18:38;;;;;;;19.48;3.72;;;9.90;99.90;;;;;;4995319;28;20061;-48
2022/12/28 11:21:04;;;;;;;22.88;3.10;;;10.00;99.90;;;;;;4984283;28;20136;-54
2022/12/28 11:23:32;;;;;;;16.92;3.13;;;9.90;99.90;;;;;;5002072;28;20103;-47
2022/12/28 11:25:58;;;;;;;19.52;3.67;;;10.00;99.90;;;;;;4992574;28;20065;-46
2022/12/28 11:28:24;;;;;;;19.58;3.28;;;9.90;99.90;;;;;;4977437;28;20039;-51
2022/12/28 11:30:50;;;;;;;20.90;2.85;;;9.90;99.90;;;;;;4979645;28;20037;-48
2022/12/28 11:33:38;;;;;;;21.13;2.88;;;10.00;99.90;;;;;;4984904;28;20390;-48
2022/12/28 11:36:05;;;;;;;21.40;2.33;;;9.90;99.90;;;;;;4991743;28;20109;-48
2022/12/28 11:38:46;;;;;;;17.33;2.58;;;9.90;99.90;;;;;;4990716;28;20022;-46
2022/12/28 11:41:23;;;;;;;19.05;3.20;;;9.90;99.90;;;;;;4991489;28;20030;-46
2022/12/28 11:44:03;;;;;;;17.77;3.03;;;9.90;99.90;;;;;;4978511;28;20512;-50
2022/12/28 11:46:29;;;;;;;23.33;3.35;;;9.90;99.90;;;;;;4991388;28;20042;-48
2022/12/28 11:49:16;;;;;;;19.65;3.72;;;9.90;99.90;;;;;;4990441;28;20026;-51
2022/12/28 11:51:41;;;;;;;17.85;2.38;;;9.90;99.90;;;;;;4990570;28;20395;-52
2022/12/28 11:54:36;;;;;;;19.40;2.30;;;9.90;99.90;;;;;;4990783;28;20018;-47
2022/12/28 11:57:02;;;;;;;16.65;2.75;;;9.90;99.90;;;;;;4983425;28;20080;-49
2022/12/28 11:59:30;;;;;;;14.52;2.40;;;9.80;99.90;;;;;;4990479;28;20026;-49
2022/12/28 12:02:00;;;;;;;17.75;2.63;;;9.80;99.90;;;;;;4989951;28;20134;-52
2022/12/28 12:04:35;;;;;;;23.63;3.15;;;9.90;99.90;;;;;;4990916;28;20038;-46
2022/12/28 12:07:01;;;;;;;21.08;3.10;;;9.80;99.90;;;;;;4981559;28;20497;-46
2022/12/28 12:09:41;;;;;;;20.42;3.88;;;9.80;99.90;;;;;;4974433;28;20042;-47
2022/12/28 12:12:13;;;;;;;19.45;3.22;;;9.80;99.90;;;;;;4975139;28;20073;-47
2022/12/28 12:14:59;;;;;;;15.02;2.90;;;9.80;99.90;;;;;;4971366;28;20031;-51
2022/12/28 12:17:28;;;;;;;14.95;2.47;;;9.80;99.90;;;;;;4975505;28;20077;-49
2022/12/28 12:19:59;;;;;;;28.60;3.17;;;9.90;99.90;;;;;;4976250;28;20035;-49
2022/12/28 12:22:30;;;;;;;14.85;3.38;;;9.90;99.90;;;;;;4980458;28;20035;-50
2022/12/28 12:25:13;;;;;;;22.58;4.25;;;9.90;99.90;;;;;;4976181;28;20054;-53
2022/12/28 12:27:43;;;;;;;22.40;3.40;;;9.90;99.90;;;;;;4973618;28;20039;-48
2022/12/28 12:30:18;;;;;;;29.02;3.58;;;9.90;99.90;;;;;;4994061;28;20069;-49
2022/12/28 12:33:00;;;;;;;23.63;3.35;;;9.90;99.90;;;;;;4996218;28;20045;-48
2022/12/28 12:35:29;;;;;;;30.42;4.32;;;9.90;99.90;;;;;;4981756;28;20150;-47
2022/12/28 12:38:36;;;;;;;22.83;3.13;;;10.00;99.90;;;;;;4972583;28;20474;-48
2022/12/28 12:41:29;;;;;;;27.45;3.63;;;9.90;99.90;;;;;;4974858;28;20268;-50
2022/12/28 12:44:33;;;;;;;20.58;3.03;;;9.90;99.90;;;;;;4984292;28;20034;-45
2022/12/28 12:47:13;;;;;;;21.50;2.75;;;9.90;99.90;;;;;;4985738;28;20053;-48
2022/12/28 12:50:02;;;;;;;14.68;2.40;;;9.90;99.90;;;;;;4990721;28;20015;-49
2022/12/28 12:52:49;;;;;;;18.45;2.38;;;10.00;99.90;;;;;;4982823;28;20049;-49
2022/12/28 12:55:33;;;;;;;19.25;3.20;;;9.90;99.90;;;;;;4993754;28;20037;-47
2022/12/28 12:58:20;;;;;;;24.13;3.15;;;9.90;99.90;;;;;;4983428;28;20037;-54
2022/12/28 13:00:56;;;;;;;17.77;2.35;;;9.90;99.90;;;;;;4992288;28;20055;-48
2022/12/28 13:03:35;;;;;;;14.32;2.65;;;10.00;99.90;;;;;;4986910;28;20018;-50
2022/12/28 13:06:04;;;;;;;21.50;2.97;;;10.00;99.90;;;;;;4987100;28;20022;-48
2022/12/28 13:08:44;;;;;;;18.77;3.53;;;10.00;99.90;;;;;;4987457;28;20470;-52
2022/12/28 13:11:11;;;;;;;30.40;3.83;;;10.00;99.90;;;;;;4995722;28;20034;-50
2022/12/28 13:13:39;;;;;;;30.98;3.63;;;10.10;99.90;;;;;;4992130;28;20042;-49
2022/12/28 13:16:09;;;;;;;15.25;3.20;;;10.10;99.90;;;;;;4994010;28;20477;-48
2022/12/28 13:18:35;;;;;;;21.88;2.97;;;10.10;99.90;;;;;;4996141;28;20025;-47
2022/12/28 13:21:02;;;;;;;16.13;2.80;;;10.10;99.90;;;;;;4985537;28;20030;-45
2022/12/28 13:23:30;;;;;;;19.30;2.90;;;10.00;99.90;;;;;;4980431;28;20031;-46
2022/12/28 13:25:59;;;;;;;18.10;2.58;;;10.10;99.90;;;;;;4994194;28;20038;-50